sensor_id;sensor_type;location;lat;lon;timestamp;P1;durP1;ratioP1;P2;durP2;ratioP2
12650;SDS011;6390;49.400;8.670;2023-04-24T03:33:06;1.20;;;0.98;;
12650;SDS011;6390;49.400;8.670;2023-04-24T03:35:32;1.17;;;0.90;;
12650;SDS011;6390;49.400;8.670;2023-04-24T03:37:58;0.85;;;0.85;;
12650;SDS011;6390;49.400;8.670;2023-04-24T03:40:24;0.85;;;0.85;;
12650;SDS011;6390;49.400;8.670;2023-04-24T03:42:50;1.40;;;0.90;;
12650;SDS011;6390;49.400;8.670;2023-04-24T03:45:16;1.20;;;1.10;;
12650;SDS011;6390;49.400;8.670;2023-04-24T03:47:43;1.30;;;1.10;;
12650;SDS011;6390;49.400;8.670;2023-04-24T03:50:09;0.90;;;0.90;;
12650;SDS011;6390;49.400;8.670;2023-04-24T03:52:35;1.13;;;1.00;;
12650;SDS011;6390;49.400;8.670;2023-04-24T03:55:01;1.20;;;1.10;;
12650;SDS011;6390;49.400;8.670;2023-04-24T03:59:34;0.90;;;0.80;;
12650;SDS011;6390;49.400;8.670;2023-04-24T04:02:00;0.90;;;0.90;;
12650;SDS011;6390;49.400;8.670;2023-04-24T04:04:26;1.08;;;0.98;;
12650;SDS011;6390;49.400;8.670;2023-04-24T04:06:52;1.00;;;1.00;;
12650;SDS011;6390;49.400;8.670;2023-04-24T04:09:19;1.08;;;0.98;;
12650;SDS011;6390;49.400;8.670;2023-04-24T04:11:45;1.55;;;0.98;;
12650;SDS011;6390;49.400;8.670;2023-04-24T04:14:11;1.33;;;1.20;;
12650;SDS011;6390;49.400;8.670;2023-04-24T04:16:37;1.30;;;1.20;;
12650;SDS011;6390;49.400;8.670;2023-04-24T04:19:03;1.23;;;1.13;;
12650;SDS011;6390;49.400;8.670;2023-04-24T04:21:30;1.10;;;1.10;;
12650;SDS011;6390;49.400;8.670;2023-04-24T04:23:57;1.20;;;1.10;;
12650;SDS011;6390;49.400;8.670;2023-04-24T04:26:23;1.15;;;1.05;;
12650;SDS011;6390;49.400;8.670;2023-04-24T04:28:50;1.30;;;1.17;;
12650;SDS011;6390;49.400;8.670;2023-04-24T04:31:18;1.35;;;1.25;;
12650;SDS011;6390;49.400;8.670;2023-04-24T04:33:45;1.20;;;1.13;;
12650;SDS011;6390;49.400;8.670;2023-04-24T04:36:12;2.15;;;1.20;;
12650;SDS011;6390;49.400;8.670;2023-04-24T04:38:38;1.10;;;1.08;;
12650;SDS011;6390;49.400;8.670;2023-04-24T04:41:05;1.38;;;1.27;;
12650;SDS011;6390;49.400;8.670;2023-04-24T04:43:32;1.55;;;1.45;;
12650;SDS011;6390;49.400;8.670;2023-04-24T04:45:59;1.60;;;1.20;;
12650;SDS011;6390;49.400;8.670;2023-04-24T04:48:25;1.40;;;1.30;;
12650;SDS011;6390;49.400;8.670;2023-04-24T04:50:53;1.48;;;1.38;;
12650;SDS011;6390;49.400;8.670;2023-04-24T04:53:19;1.40;;;1.30;;
12650;SDS011;6390;49.400;8.670;2023-04-24T04:55:46;1.58;;;1.48;;
12650;SDS011;6390;49.400;8.670;2023-04-24T04:58:12;1.65;;;1.48;;
12650;SDS011;6390;49.400;8.670;2023-04-24T05:00:38;1.70;;;1.60;;
12650;SDS011;6390;49.400;8.670;2023-04-24T05:03:04;1.75;;;1.60;;
12650;SDS011;6390;49.400;8.670;2023-04-24T05:05:31;3.75;;;1.73;;
12650;SDS011;6390;49.400;8.670;2023-04-24T05:07:57;3.05;;;1.70;;
12650;SDS011;6390;49.400;8.670;2023-04-24T05:10:23;1.70;;;1.60;;
12650;SDS011;6390;49.400;8.670;2023-04-24T05:12:49;1.65;;;1.50;;
12650;SDS011;6390;49.400;8.670;2023-04-24T05:15:15;1.60;;;1.50;;
12650;SDS011;6390;49.400;8.670;2023-04-24T05:17:41;2.28;;;1.50;;
12650;SDS011;6390;49.400;8.670;2023-04-24T05:20:07;3.03;;;1.55;;
12650;SDS011;6390;49.400;8.670;2023-04-24T05:22:34;3.38;;;1.80;;
12650;SDS011;6390;49.400;8.670;2023-04-24T05:25:01;1.92;;;1.42;;
12650;SDS011;6390;49.400;8.670;2023-04-24T05:27:27;2.35;;;1.83;;
12650;SDS011;6390;49.400;8.670;2023-04-24T05:29:54;1.80;;;1.67;;
12650;SDS011;6390;49.400;8.670;2023-04-24T05:32:20;2.60;;;1.80;;
12650;SDS011;6390;49.400;8.670;2023-04-24T05:34:46;1.77;;;1.67;;
12650;SDS011;6390;49.400;8.670;2023-04-24T05:37:12;2.78;;;1.80;;
12650;SDS011;6390;49.400;8.670;2023-04-24T05:39:38;1.85;;;1.75;;
12650;SDS011;6390;49.400;8.670;2023-04-24T05:42:05;2.30;;;1.90;;
12650;SDS011;6390;49.400;8.670;2023-04-24T05:44:32;3.10;;;2.50;;
12650;SDS011;6390;49.400;8.670;2023-04-24T05:46:58;2.60;;;1.98;;
12650;SDS011;6390;49.400;8.670;2023-04-24T05:49:24;2.17;;;1.98;;
12650;SDS011;6390;49.400;8.670;2023-04-24T05:51:50;2.47;;;2.28;;
12650;SDS011;6390;49.400;8.670;2023-04-24T05:54:16;2.60;;;2.40;;
12650;SDS011;6390;49.400;8.670;2023-04-24T05:56:42;4.18;;;2.15;;
12650;SDS011;6390;49.400;8.670;2023-04-24T05:59:08;2.30;;;2.10;;
12650;SDS011;6390;49.400;8.670;2023-04-24T06:01:34;3.25;;;2.20;;
12650;SDS011;6390;49.400;8.670;2023-04-24T06:04:01;2.55;;;2.13;;
12650;SDS011;6390;49.400;8.670;2023-04-24T06:06:28;2.47;;;2.28;;
12650;SDS011;6390;49.400;8.670;2023-04-24T06:08:54;2.20;;;2.00;;
12650;SDS011;6390;49.400;8.670;2023-04-24T06:11:20;2.38;;;2.17;;
12650;SDS011;6390;49.400;8.670;2023-04-24T06:13:47;2.40;;;2.15;;
12650;SDS011;6390;49.400;8.670;2023-04-24T06:16:13;2.50;;;2.10;;
12650;SDS011;6390;49.400;8.670;2023-04-24T06:18:40;2.42;;;2.20;;
12650;SDS011;6390;49.400;8.670;2023-04-24T06:21:06;2.38;;;2.00;;
12650;SDS011;6390;49.400;8.670;2023-04-24T06:23:32;2.50;;;2.10;;
12650;SDS011;6390;49.400;8.670;2023-04-24T06:25:58;2.20;;;1.83;;
12650;SDS011;6390;49.400;8.670;2023-04-24T06:28:25;2.20;;;2.00;;
12650;SDS011;6390;49.400;8.670;2023-04-24T06:30:51;2.00;;;1.90;;
12650;SDS011;6390;49.400;8.670;2023-04-24T06:33:17;1.83;;;1.70;;
12650;SDS011;6390;49.400;8.670;2023-04-24T06:35:43;2.00;;;1.80;;
12650;SDS011;6390;49.400;8.670;2023-04-24T06:38:09;2.13;;;1.80;;
12650;SDS011;6390;49.400;8.670;2023-04-24T06:40:35;1.73;;;1.63;;
12650;SDS011;6390;49.400;8.670;2023-04-24T06:43:02;2.00;;;1.63;;
12650;SDS011;6390;49.400;8.670;2023-04-24T06:45:28;2.15;;;1.63;;
12650;SDS011;6390;49.400;8.670;2023-04-24T06:47:55;2.08;;;1.80;;
12650;SDS011;6390;49.400;8.670;2023-04-24T06:50:21;1.73;;;1.63;;
12650;SDS011;6390;49.400;8.670;2023-04-24T06:52:47;1.90;;;1.50;;
12650;SDS011;6390;49.400;8.670;2023-04-24T06:55:13;1.92;;;1.60;;
12650;SDS011;6390;49.400;8.670;2023-04-24T06:57:41;1.55;;;1.40;;
12650;SDS011;6390;49.400;8.670;2023-04-24T07:00:09;1.45;;;1.35;;
12650;SDS011;6390;49.400;8.670;2023-04-24T07:02:36;1.30;;;1.20;;
12650;SDS011;6390;49.400;8.670;2023-04-24T07:05:02;1.10;;;1.00;;
12650;SDS011;6390;49.400;8.670;2023-04-24T07:07:29;1.98;;;1.27;;
12650;SDS011;6390;49.400;8.670;2023-04-24T07:09:56;1.75;;;1.08;;
12650;SDS011;6390;49.400;8.670;2023-04-24T07:12:22;1.00;;;1.00;;
12650;SDS011;6390;49.400;8.670;2023-04-24T07:14:48;1.35;;;1.00;;
12650;SDS011;6390;49.400;8.670;2023-04-24T07:17:15;1.20;;;1.10;;
12650;SDS011;6390;49.400;8.670;2023-04-24T07:19:42;0.80;;;0.80;;
12650;SDS011;6390;49.400;8.670;2023-04-24T07:22:08;1.42;;;1.13;;
12650;SDS011;6390;49.400;8.670;2023-04-24T07:24:36;0.98;;;0.93;;
12650;SDS011;6390;49.400;8.670;2023-04-24T07:27:02;1.20;;;1.00;;
12650;SDS011;6390;49.400;8.670;2023-04-24T07:29:29;1.25;;;1.00;;
12650;SDS011;6390;49.400;8.670;2023-04-24T07:31:55;0.90;;;0.90;;
12650;SDS011;6390;49.400;8.670;2023-04-24T07:34:21;0.70;;;0.70;;
12650;SDS011;6390;49.400;8.670;2023-04-24T07:36:47;1.02;;;0.90;;
12650;SDS011;6390;49.400;8.670;2023-04-24T07:39:13;1.15;;;1.05;;
12650;SDS011;6390;49.400;8.670;2023-04-24T07:41:42;1.00;;;1.00;;
12650;SDS011;6390;49.400;8.670;2023-04-24T07:44:09;1.15;;;1.00;;
12650;SDS011;6390;49.400;8.670;2023-04-24T07:46:35;1.27;;;1.00;;
12650;SDS011;6390;49.400;8.670;2023-04-24T07:49:01;2.05;;;0.88;;
12650;SDS011;6390;49.400;8.670;2023-04-24T07:51:28;0.70;;;0.70;;
12650;SDS011;6390;49.400;8.670;2023-04-24T07:53:55;0.80;;;0.80;;
12650;SDS011;6390;49.400;8.670;2023-04-24T07:56:21;0.93;;;0.90;;
12650;SDS011;6390;49.400;8.670;2023-04-24T07:58:47;1.10;;;0.98;;
12650;SDS011;6390;49.400;8.670;2023-04-24T08:01:13;1.10;;;1.00;;
12650;SDS011;6390;49.400;8.670;2023-04-24T08:03:39;1.17;;;1.08;;
12650;SDS011;6390;49.400;8.670;2023-04-24T08:06:05;0.80;;;0.80;;
12650;SDS011;6390;49.400;8.670;2023-04-24T08:08:31;1.00;;;1.00;;
12650;SDS011;6390;49.400;8.670;2023-04-24T08:10:58;1.00;;;1.00;;
12650;SDS011;6390;49.400;8.670;2023-04-24T08:13:24;1.13;;;1.00;;
12650;SDS011;6390;49.400;8.670;2023-04-24T08:15:50;0.95;;;0.77;;
12650;SDS011;6390;49.400;8.670;2023-04-24T08:18:16;1.85;;;1.17;;
12650;SDS011;6390;49.400;8.670;2023-04-24T08:20:42;0.90;;;0.90;;
12650;SDS011;6390;49.400;8.670;2023-04-24T08:23:08;1.17;;;1.08;;
12650;SDS011;6390;49.400;8.670;2023-04-24T08:25:34;1.00;;;1.00;;
12650;SDS011;6390;49.400;8.670;2023-04-24T08:28:02;0.82;;;0.82;;
12650;SDS011;6390;49.400;8.670;2023-04-24T08:30:30;0.73;;;0.73;;
12650;SDS011;6390;49.400;8.670;2023-04-24T08:32:56;1.17;;;1.08;;
12650;SDS011;6390;49.400;8.670;2023-04-24T08:35:23;0.98;;;0.98;;
12650;SDS011;6390;49.400;8.670;2023-04-24T08:37:49;1.27;;;1.17;;
12650;SDS011;6390;49.400;8.670;2023-04-24T08:40:16;1.17;;;1.08;;
12650;SDS011;6390;49.400;8.670;2023-04-24T08:42:42;1.45;;;1.25;;
12650;SDS011;6390;49.400;8.670;2023-04-24T08:45:10;1.20;;;1.10;;
12650;SDS011;6390;49.400;8.670;2023-04-24T08:47:38;1.00;;;1.00;;
12650;SDS011;6390;49.400;8.670;2023-04-24T08:50:05;1.33;;;1.10;;
12650;SDS011;6390;49.400;8.670;2023-04-24T08:52:33;0.98;;;0.95;;
12650;SDS011;6390;49.400;8.670;2023-04-24T08:55:00;1.42;;;1.10;;
12650;SDS011;6390;49.400;8.670;2023-04-24T08:57:27;1.30;;;1.10;;
12650;SDS011;6390;49.400;8.670;2023-04-24T08:59:54;1.30;;;1.20;;
12650;SDS011;6390;49.400;8.670;2023-04-24T09:02:21;1.33;;;1.20;;
12650;SDS011;6390;49.400;8.670;2023-04-24T09:04:48;1.40;;;1.30;;
12650;SDS011;6390;49.400;8.670;2023-04-24T09:07:16;1.50;;;1.40;;
12650;SDS011;6390;49.400;8.670;2023-04-24T09:09:44;1.60;;;1.40;;
12650;SDS011;6390;49.400;8.670;2023-04-24T09:12:10;1.67;;;1.30;;
12650;SDS011;6390;49.400;8.670;2023-04-24T09:14:37;1.40;;;1.10;;
12650;SDS011;6390;49.400;8.670;2023-04-24T09:17:07;1.10;;;1.00;;
12650;SDS011;6390;49.400;8.670;2023-04-24T09:19:33;1.38;;;1.20;;
12650;SDS011;6390;49.400;8.670;2023-04-24T09:22:00;1.10;;;1.00;;
12650;SDS011;6390;49.400;8.670;2023-04-24T09:24:31;1.30;;;1.20;;
12650;SDS011;6390;49.400;8.670;2023-04-24T09:26:58;1.17;;;1.08;;
12650;SDS011;6390;49.400;8.670;2023-04-24T09:29:26;1.33;;;1.00;;
12650;SDS011;6390;49.400;8.670;2023-04-24T09:31:53;1.15;;;1.00;;
12650;SDS011;6390;49.400;8.670;2023-04-24T09:34:23;1.48;;;1.23;;
12650;SDS011;6390;49.400;8.670;2023-04-24T09:36:51;2.35;;;1.20;;
12650;SDS011;6390;49.400;8.670;2023-04-24T09:39:18;1.20;;;1.10;;
12650;SDS011;6390;49.400;8.670;2023-04-24T09:44:19;1.10;;;1.00;;
12650;SDS011;6390;49.400;8.670;2023-04-24T09:46:50;1.50;;;1.40;;
12650;SDS011;6390;49.400;8.670;2023-04-24T09:49:28;1.20;;;1.10;;
12650;SDS011;6390;49.400;8.670;2023-04-24T09:52:05;1.15;;;1.00;;
12650;SDS011;6390;49.400;8.670;2023-04-24T09:54:36;1.20;;;1.10;;
12650;SDS011;6390;49.400;8.670;2023-04-24T09:57:03;1.30;;;1.20;;
12650;SDS011;6390;49.400;8.670;2023-04-24T09:59:29;2.33;;;1.70;;
12650;SDS011;6390;49.400;8.670;2023-04-24T10:01:56;2.15;;;1.30;;
12650;SDS011;6390;49.400;8.670;2023-04-24T10:04:24;1.30;;;1.20;;
12650;SDS011;6390;49.400;8.670;2023-04-24T10:06:53;2.65;;;1.30;;
12650;SDS011;6390;49.400;8.670;2023-04-24T10:09:24;2.65;;;1.38;;
12650;SDS011;6390;49.400;8.670;2023-04-24T10:11:52;0.90;;;0.90;;
12650;SDS011;6390;49.400;8.670;2023-04-24T10:14:20;1.38;;;1.20;;
12650;SDS011;6390;49.400;8.670;2023-04-24T10:16:48;1.30;;;1.15;;
12650;SDS011;6390;49.400;8.670;2023-04-24T10:19:17;1.10;;;0.93;;
12650;SDS011;6390;49.400;8.670;2023-04-24T10:21:44;1.30;;;1.00;;
12650;SDS011;6390;49.400;8.670;2023-04-24T10:24:14;1.30;;;1.20;;
12650;SDS011;6390;49.400;8.670;2023-04-24T10:26:41;0.75;;;0.75;;
12650;SDS011;6390;49.400;8.670;2023-04-24T10:29:08;1.10;;;1.00;;
12650;SDS011;6390;49.400;8.670;2023-04-24T10:31:37;1.10;;;1.00;;
12650;SDS011;6390;49.400;8.670;2023-04-24T10:34:04;0.88;;;0.88;;
12650;SDS011;6390;49.400;8.670;2023-04-24T10:36:32;0.90;;;0.90;;
12650;SDS011;6390;49.400;8.670;2023-04-24T10:39:01;1.00;;;0.90;;
12650;SDS011;6390;49.400;8.670;2023-04-24T10:41:30;1.20;;;0.90;;
12650;SDS011;6390;49.400;8.670;2023-04-24T10:44:06;0.80;;;0.80;;
12650;SDS011;6390;49.400;8.670;2023-04-24T10:46:33;1.20;;;0.88;;
12650;SDS011;6390;49.400;8.670;2023-04-24T10:48:59;1.10;;;1.00;;
12650;SDS011;6390;49.400;8.670;2023-04-24T10:51:46;1.75;;;1.00;;
12650;SDS011;6390;49.400;8.670;2023-04-24T10:59:47;1.17;;;1.10;;
12650;SDS011;6390;49.400;8.670;2023-04-24T11:02:45;1.95;;;1.20;;
12650;SDS011;6390;49.400;8.670;2023-04-24T11:05:15;1.20;;;1.10;;
12650;SDS011;6390;49.400;8.670;2023-04-24T11:10:45;1.40;;;1.25;;
12650;SDS011;6390;49.400;8.670;2023-04-24T11:13:16;1.17;;;1.08;;
12650;SDS011;6390;49.400;8.670;2023-04-24T11:15:42;1.33;;;1.23;;
12650;SDS011;6390;49.400;8.670;2023-04-24T11:18:13;2.38;;;1.35;;
12650;SDS011;6390;49.400;8.670;2023-04-24T11:20:42;1.33;;;1.23;;
12650;SDS011;6390;49.400;8.670;2023-04-24T11:23:11;1.85;;;1.00;;
12650;SDS011;6390;49.400;8.670;2023-04-24T11:25:39;1.25;;;1.15;;
12650;SDS011;6390;49.400;8.670;2023-04-24T11:28:06;1.30;;;1.20;;
12650;SDS011;6390;49.400;8.670;2023-04-24T11:30:32;1.20;;;1.10;;
12650;SDS011;6390;49.400;8.670;2023-04-24T11:33:02;3.90;;;1.50;;
12650;SDS011;6390;49.400;8.670;2023-04-24T11:35:29;1.40;;;1.30;;
12650;SDS011;6390;49.400;8.670;2023-04-24T11:38:04;1.60;;;1.35;;
12650;SDS011;6390;49.400;8.670;2023-04-24T11:40:30;1.60;;;1.50;;
12650;SDS011;6390;49.400;8.670;2023-04-24T11:42:56;1.50;;;1.33;;
12650;SDS011;6390;49.400;8.670;2023-04-24T11:45:26;2.38;;;1.42;;
12650;SDS011;6390;49.400;8.670;2023-04-24T11:47:54;1.60;;;1.48;;
12650;SDS011;6390;49.400;8.670;2023-04-24T11:50:22;1.50;;;1.40;;
12650;SDS011;6390;49.400;8.670;2023-04-24T11:52:51;2.17;;;1.50;;
12650;SDS011;6390;49.400;8.670;2023-04-24T11:57:47;2.10;;;1.77;;
12650;SDS011;6390;49.400;8.670;2023-04-24T12:03:04;1.55;;;1.40;;
12650;SDS011;6390;49.400;8.670;2023-04-24T12:05:31;2.60;;;1.40;;
12650;SDS011;6390;49.400;8.670;2023-04-24T12:07:59;1.60;;;1.50;;
12650;SDS011;6390;49.400;8.670;2023-04-24T12:10:26;2.00;;;1.80;;
12650;SDS011;6390;49.400;8.670;2023-04-24T12:12:55;2.03;;;1.60;;
12650;SDS011;6390;49.400;8.670;2023-04-24T12:15:23;1.60;;;1.50;;
12650;SDS011;6390;49.400;8.670;2023-04-24T12:17:53;1.63;;;1.52;;
12650;SDS011;6390;49.400;8.670;2023-04-24T12:20:27;2.05;;;1.80;;
12650;SDS011;6390;49.400;8.670;2023-04-24T12:22:56;1.92;;;1.80;;
12650;SDS011;6390;49.400;8.670;2023-04-24T12:25:25;1.55;;;1.45;;
12650;SDS011;6390;49.400;8.670;2023-04-24T12:30:29;1.75;;;1.50;;
12650;SDS011;6390;49.400;8.670;2023-04-24T12:33:04;1.73;;;1.50;;
12650;SDS011;6390;49.400;8.670;2023-04-24T12:35:31;2.03;;;1.60;;
12650;SDS011;6390;49.400;8.670;2023-04-24T12:38:08;2.45;;;1.70;;
12650;SDS011;6390;49.400;8.670;2023-04-24T12:40:40;1.75;;;1.55;;
12650;SDS011;6390;49.400;8.670;2023-04-24T12:43:14;1.77;;;1.58;;
12650;SDS011;6390;49.400;8.670;2023-04-24T12:45:45;2.20;;;1.85;;
12650;SDS011;6390;49.400;8.670;2023-04-24T12:48:12;2.20;;;1.65;;
12650;SDS011;6390;49.400;8.670;2023-04-24T12:50:39;1.67;;;1.58;;
12650;SDS011;6390;49.400;8.670;2023-04-24T12:53:05;1.70;;;1.55;;
12650;SDS011;6390;49.400;8.670;2023-04-24T12:55:33;1.98;;;1.60;;
12650;SDS011;6390;49.400;8.670;2023-04-24T12:58:00;1.63;;;1.50;;
12650;SDS011;6390;49.400;8.670;2023-04-24T13:00:26;1.80;;;1.48;;
12650;SDS011;6390;49.400;8.670;2023-04-24T13:02:53;1.60;;;1.50;;
12650;SDS011;6390;49.400;8.670;2023-04-24T13:05:19;1.40;;;1.30;;
12650;SDS011;6390;49.400;8.670;2023-04-24T13:07:45;1.80;;;1.40;;
12650;SDS011;6390;49.400;8.670;2023-04-24T13:10:11;4.75;;;1.48;;
12650;SDS011;6390;49.400;8.670;2023-04-24T13:12:38;2.08;;;1.70;;
12650;SDS011;6390;49.400;8.670;2023-04-24T13:15:05;1.52;;;1.42;;
12650;SDS011;6390;49.400;8.670;2023-04-24T13:17:32;1.60;;;1.50;;
12650;SDS011;6390;49.400;8.670;2023-04-24T13:19:58;2.35;;;1.80;;
12650;SDS011;6390;49.400;8.670;2023-04-24T13:22:24;1.73;;;1.48;;
12650;SDS011;6390;49.400;8.670;2023-04-24T13:24:51;1.92;;;1.80;;
12650;SDS011;6390;49.400;8.670;2023-04-24T13:27:17;1.40;;;1.30;;
12650;SDS011;6390;49.400;8.670;2023-04-24T13:29:43;2.10;;;1.60;;
12650;SDS011;6390;49.400;8.670;2023-04-24T13:32:10;1.75;;;1.40;;
12650;SDS011;6390;49.400;8.670;2023-04-24T13:34:36;3.28;;;1.63;;
12650;SDS011;6390;49.400;8.670;2023-04-24T13:37:02;1.67;;;1.58;;
12650;SDS011;6390;49.400;8.670;2023-04-24T13:39:29;1.50;;;1.40;;
12650;SDS011;6390;49.400;8.670;2023-04-24T13:41:56;1.60;;;1.33;;
12650;SDS011;6390;49.400;8.670;2023-04-24T13:44:23;3.67;;;1.60;;
12650;SDS011;6390;49.400;8.670;2023-04-24T13:46:51;3.25;;;1.48;;
12650;SDS011;6390;49.400;8.670;2023-04-24T13:49:21;1.95;;;1.50;;
12650;SDS011;6390;49.400;8.670;2023-04-24T13:51:50;1.63;;;1.52;;
12650;SDS011;6390;49.400;8.670;2023-04-24T13:54:17;2.35;;;1.70;;
12650;SDS011;6390;49.400;8.670;2023-04-24T13:56:43;2.15;;;1.80;;
12650;SDS011;6390;49.400;8.670;2023-04-24T13:59:09;1.95;;;1.70;;
12650;SDS011;6390;49.400;8.670;2023-04-24T14:01:36;2.03;;;1.58;;
12650;SDS011;6390;49.400;8.670;2023-04-24T14:04:02;2.08;;;1.85;;
12650;SDS011;6390;49.400;8.670;2023-04-24T14:06:28;2.05;;;1.70;;
12650;SDS011;6390;49.400;8.670;2023-04-24T14:08:54;1.75;;;1.65;;
12650;SDS011;6390;49.400;8.670;2023-04-24T14:11:20;1.60;;;1.50;;
12650;SDS011;6390;49.400;8.670;2023-04-24T14:13:47;1.48;;;1.38;;
12650;SDS011;6390;49.400;8.670;2023-04-24T14:16:13;1.90;;;1.70;;
12650;SDS011;6390;49.400;8.670;2023-04-24T14:18:40;1.95;;;1.75;;
12650;SDS011;6390;49.400;8.670;2023-04-24T14:21:06;2.95;;;1.75;;
12650;SDS011;6390;49.400;8.670;2023-04-24T14:23:32;1.75;;;1.65;;
12650;SDS011;6390;49.400;8.670;2023-04-24T14:25:58;1.90;;;1.80;;
12650;SDS011;6390;49.400;8.670;2023-04-24T14:28:25;2.40;;;1.67;;
12650;SDS011;6390;49.400;8.670;2023-04-24T14:30:51;2.05;;;1.45;;
12650;SDS011;6390;49.400;8.670;2023-04-24T14:33:18;1.70;;;1.60;;
12650;SDS011;6390;49.400;8.670;2023-04-24T14:35:44;2.35;;;1.55;;
12650;SDS011;6390;49.400;8.670;2023-04-24T14:38:10;1.92;;;1.50;;
12650;SDS011;6390;49.400;8.670;2023-04-24T14:40:37;1.73;;;1.60;;
12650;SDS011;6390;49.400;8.670;2023-04-24T14:43:03;1.98;;;1.38;;
12650;SDS011;6390;49.400;8.670;2023-04-24T14:45:29;1.95;;;1.50;;
12650;SDS011;6390;49.400;8.670;2023-04-24T14:47:55;2.35;;;1.70;;
12650;SDS011;6390;49.400;8.670;2023-04-24T14:50:22;1.42;;;1.33;;
12650;SDS011;6390;49.400;8.670;2023-04-24T14:52:52;1.42;;;1.30;;
12650;SDS011;6390;49.400;8.670;2023-04-24T14:55:20;1.55;;;1.40;;
12650;SDS011;6390;49.400;8.670;2023-04-24T14:57:46;1.40;;;1.30;;
12650;SDS011;6390;49.400;8.670;2023-04-24T15:00:12;1.85;;;1.58;;
12650;SDS011;6390;49.400;8.670;2023-04-24T15:02:39;1.90;;;1.40;;
12650;SDS011;6390;49.400;8.670;2023-04-24T15:05:06;1.45;;;1.30;;
12650;SDS011;6390;49.400;8.670;2023-04-24T15:07:33;1.50;;;1.40;;
12650;SDS011;6390;49.400;8.670;2023-04-24T15:10:00;2.17;;;1.48;;
12650;SDS011;6390;49.400;8.670;2023-04-24T15:12:28;2.15;;;1.60;;
12650;SDS011;6390;49.400;8.670;2023-04-24T15:14:54;1.67;;;1.55;;
12650;SDS011;6390;49.400;8.670;2023-04-24T15:17:20;1.70;;;1.60;;
12650;SDS011;6390;49.400;8.670;2023-04-24T15:19:46;1.70;;;1.60;;
12650;SDS011;6390;49.400;8.670;2023-04-24T15:22:12;1.60;;;1.50;;
12650;SDS011;6390;49.400;8.670;2023-04-24T15:24:39;1.70;;;1.60;;
12650;SDS011;6390;49.400;8.670;2023-04-24T15:27:05;2.03;;;1.70;;
12650;SDS011;6390;49.400;8.670;2023-04-24T15:29:33;1.80;;;1.70;;
12650;SDS011;6390;49.400;8.670;2023-04-24T15:32:00;2.50;;;1.65;;
12650;SDS011;6390;49.400;8.670;2023-04-24T15:34:26;16.75;;;7.60;;
12650;SDS011;6390;49.400;8.670;2023-04-24T15:36:52;15.20;;;9.23;;
12650;SDS011;6390;49.400;8.670;2023-04-24T15:39:21;5.45;;;3.90;;
12650;SDS011;6390;49.400;8.670;2023-04-24T15:41:49;4.68;;;3.20;;
12650;SDS011;6390;49.400;8.670;2023-04-24T15:44:15;3.25;;;2.75;;
12650;SDS011;6390;49.400;8.670;2023-04-24T15:46:41;2.55;;;2.30;;
12650;SDS011;6390;49.400;8.670;2023-04-24T15:49:08;1.95;;;1.80;;
12650;SDS011;6390;49.400;8.670;2023-04-24T15:51:35;3.17;;;1.95;;
12650;SDS011;6390;49.400;8.670;2023-04-24T15:54:01;1.63;;;1.52;;
12650;SDS011;6390;49.400;8.670;2023-04-24T15:56:28;4.20;;;1.80;;
12650;SDS011;6390;49.400;8.670;2023-04-24T15:58:54;1.70;;;1.60;;
12650;SDS011;6390;49.400;8.670;2023-04-24T16:01:20;1.73;;;1.50;;
12650;SDS011;6390;49.400;8.670;2023-04-24T16:03:47;1.75;;;1.65;;
12650;SDS011;6390;49.400;8.670;2023-04-24T16:06:13;1.60;;;1.50;;
12650;SDS011;6390;49.400;8.670;2023-04-24T16:08:39;1.70;;;1.60;;
12650;SDS011;6390;49.400;8.670;2023-04-24T16:11:05;1.55;;;1.45;;
12650;SDS011;6390;49.400;8.670;2023-04-24T16:13:31;1.98;;;1.70;;
12650;SDS011;6390;49.400;8.670;2023-04-24T16:15:58;1.80;;;1.70;;
12650;SDS011;6390;49.400;8.670;2023-04-24T16:18:24;1.42;;;1.33;;
12650;SDS011;6390;49.400;8.670;2023-04-24T16:20:50;1.77;;;1.60;;
12650;SDS011;6390;49.400;8.670;2023-04-24T16:23:16;1.55;;;1.45;;
12650;SDS011;6390;49.400;8.670;2023-04-24T16:25:42;1.50;;;1.38;;
12650;SDS011;6390;49.400;8.670;2023-04-24T16:28:09;1.67;;;1.58;;
12650;SDS011;6390;49.400;8.670;2023-04-24T16:30:36;1.98;;;1.48;;
12650;SDS011;6390;49.400;8.670;2023-04-24T16:33:04;1.77;;;1.67;;
12650;SDS011;6390;49.400;8.670;2023-04-24T16:35:33;1.50;;;1.40;;
12650;SDS011;6390;49.400;8.670;2023-04-24T16:38:00;1.38;;;1.23;;
12650;SDS011;6390;49.400;8.670;2023-04-24T16:40:28;1.50;;;1.40;;
12650;SDS011;6390;49.400;8.670;2023-04-24T16:42:55;1.50;;;1.40;;
12650;SDS011;6390;49.400;8.670;2023-04-24T16:45:21;1.38;;;1.27;;
12650;SDS011;6390;49.400;8.670;2023-04-24T16:47:47;1.65;;;1.50;;
12650;SDS011;6390;49.400;8.670;2023-04-24T16:50:13;1.70;;;1.60;;
12650;SDS011;6390;49.400;8.670;2023-04-24T16:52:39;2.00;;;1.45;;
12650;SDS011;6390;49.400;8.670;2023-04-24T16:55:07;2.70;;;1.58;;
12650;SDS011;6390;49.400;8.670;2023-04-24T16:57:34;1.55;;;1.30;;
12650;SDS011;6390;49.400;8.670;2023-04-24T17:00:00;1.50;;;1.40;;
12650;SDS011;6390;49.400;8.670;2023-04-24T17:02:27;1.40;;;1.30;;
12650;SDS011;6390;49.400;8.670;2023-04-24T17:04:54;1.30;;;1.20;;
12650;SDS011;6390;49.400;8.670;2023-04-24T17:07:20;1.27;;;1.15;;
12650;SDS011;6390;49.400;8.670;2023-04-24T17:09:46;1.20;;;1.10;;
12650;SDS011;6390;49.400;8.670;2023-04-24T17:12:12;1.50;;;1.23;;
12650;SDS011;6390;49.400;8.670;2023-04-24T17:14:38;1.40;;;1.20;;
12650;SDS011;6390;49.400;8.670;2023-04-24T17:17:04;1.20;;;1.10;;
12650;SDS011;6390;49.400;8.670;2023-04-24T17:19:30;1.27;;;1.17;;
12650;SDS011;6390;49.400;8.670;2023-04-24T17:21:57;1.20;;;1.10;;
12650;SDS011;6390;49.400;8.670;2023-04-24T17:24:23;1.40;;;1.30;;
12650;SDS011;6390;49.400;8.670;2023-04-24T17:26:49;1.30;;;1.20;;
12650;SDS011;6390;49.400;8.670;2023-04-24T17:29:15;1.38;;;1.20;;
12650;SDS011;6390;49.400;8.670;2023-04-24T17:31:41;1.45;;;1.10;;
12650;SDS011;6390;49.400;8.670;2023-04-24T17:34:07;1.40;;;1.30;;
12650;SDS011;6390;49.400;8.670;2023-04-24T17:36:34;1.30;;;1.20;;
12650;SDS011;6390;49.400;8.670;2023-04-24T17:39:02;1.85;;;1.45;;
12650;SDS011;6390;49.400;8.670;2023-04-24T17:41:28;1.45;;;1.23;;
12650;SDS011;6390;49.400;8.670;2023-04-24T17:43:54;1.48;;;1.35;;
12650;SDS011;6390;49.400;8.670;2023-04-24T17:46:20;1.20;;;1.10;;
12650;SDS011;6390;49.400;8.670;2023-04-24T17:48:46;1.27;;;1.17;;
12650;SDS011;6390;49.400;8.670;2023-04-24T17:51:12;1.27;;;1.10;;
12650;SDS011;6390;49.400;8.670;2023-04-24T17:53:39;1.30;;;1.20;;
12650;SDS011;6390;49.400;8.670;2023-04-24T17:56:05;1.50;;;1.40;;
12650;SDS011;6390;49.400;8.670;2023-04-24T17:58:32;1.58;;;1.13;;
12650;SDS011;6390;49.400;8.670;2023-04-24T18:00:59;1.35;;;1.25;;
12650;SDS011;6390;49.400;8.670;2023-04-24T18:03:26;1.92;;;1.38;;
12650;SDS011;6390;49.400;8.670;2023-04-24T18:05:52;1.65;;;1.40;;
12650;SDS011;6390;49.400;8.670;2023-04-24T18:08:18;2.28;;;1.45;;
12650;SDS011;6390;49.400;8.670;2023-04-24T18:10:44;1.80;;;1.40;;
12650;SDS011;6390;49.400;8.670;2023-04-24T18:13:11;1.67;;;1.40;;
12650;SDS011;6390;49.400;8.670;2023-04-24T18:15:37;2.90;;;1.58;;
12650;SDS011;6390;49.400;8.670;2023-04-24T18:18:06;2.35;;;1.30;;
12650;SDS011;6390;49.400;8.670;2023-04-24T18:20:33;1.40;;;1.30;;
12650;SDS011;6390;49.400;8.670;2023-04-24T18:22:59;1.98;;;1.70;;
12650;SDS011;6390;49.400;8.670;2023-04-24T18:25:27;3.92;;;1.40;;
12650;SDS011;6390;49.400;8.670;2023-04-24T18:27:53;1.40;;;1.30;;
12650;SDS011;6390;49.400;8.670;2023-04-24T18:30:20;2.30;;;1.52;;
12650;SDS011;6390;49.400;8.670;2023-04-24T18:32:48;1.15;;;1.05;;
12650;SDS011;6390;49.400;8.670;2023-04-24T18:35:16;1.40;;;1.30;;
12650;SDS011;6390;49.400;8.670;2023-04-24T18:37:45;1.40;;;1.30;;
12650;SDS011;6390;49.400;8.670;2023-04-24T18:40:12;1.15;;;0.90;;
12650;SDS011;6390;49.400;8.670;2023-04-24T18:42:39;1.33;;;1.23;;
12650;SDS011;6390;49.400;8.670;2023-04-24T18:45:05;2.10;;;1.30;;
12650;SDS011;6390;49.400;8.670;2023-04-24T18:47:32;1.30;;;1.20;;
12650;SDS011;6390;49.400;8.670;2023-04-24T18:49:58;1.38;;;1.27;;
12650;SDS011;6390;49.400;8.670;2023-04-24T18:52:25;1.33;;;1.10;;